KETN/ETN METAR and TAF weather

Enter ICAO airport designator
Station Type Date Time Source
KETN METAR 2022/08/12 14:50 UTC NOAA

KETN 121450Z AUTO 05008KT 10SM BKN085 26/19 A3010 RMK AO2 T02630191


Station Type Date Time Source
KETN Decoded METAR 2022/08/12 14:50 UTC NOAA

Station name not available
Aug 12, 2022 - 10:50 AM EDT / 2022.08.12 1450 UTC
Wind: from the NE (050 degrees) at 9 MPH (8 KT):0
Visibility: 10 mile(s):0
Sky conditions: mostly cloudy
Temperature: 79.3 F (26.3 C)
Dew Point: 66.4 F (19.1 C)
Relative Humidity: 64%
Pressure (altimeter): 30.1 in. Hg (1019 hPa)
ob: KETN 121450Z AUTO 05008KT 10SM BKN085 26/19 A3010 RMK AO2 T02630191
cycle: 15

Station Type Date Time Source
KETN TAF UTC NOAA

Error!

Example: see airport list